createdAt,value
2019-05-05T00:01:35.260Z,101184.19
2019-05-05T00:04:41.639Z,101186.50
2019-05-05T00:07:12.195Z,101190.16
2019-05-05T00:09:41.507Z,101189.12
2019-05-05T00:12:25.081Z,101189.12
2019-05-05T00:15:05.277Z,101195.27
2019-05-05T00:17:34.767Z,101195.14
2019-05-05T00:20:05.227Z,101198.67
2019-05-05T00:22:35.055Z,101201.06
2019-05-05T00:25:05.146Z,101205.95
2019-05-05T00:27:34.723Z,101207.60
2019-05-05T00:30:05.395Z,101216.29
2019-05-05T00:32:35.235Z,101215.96
2019-05-05T00:35:04.678Z,101224.16
2019-05-05T00:37:34.607Z,101217.05
2019-05-05T00:40:05.057Z,101220.48
2019-05-05T00:42:35.186Z,101224.02
2019-05-05T00:45:05.568Z,101219.66
2019-05-05T00:47:44.951Z,101228.67
2019-05-05T00:50:17.431Z,101222.70
2019-05-05T00:52:46.791Z,101230.70
2019-05-05T00:55:16.314Z,101227.55
2019-05-05T00:57:45.772Z,101229.81
2019-05-05T01:00:34.949Z,101226.14
2019-05-05T01:03:04.816Z,101229.44
2019-05-05T01:05:49.059Z,101236.80
2019-05-05T01:08:21.762Z,101231.39
2019-05-05T01:10:51.077Z,101234.79
2019-05-05T01:13:20.436Z,101240.84
2019-05-05T01:15:49.858Z,101240.02
2019-05-05T01:18:19.187Z,101241.99
2019-05-05T01:20:48.570Z,101238.67
2019-05-05T01:23:18.148Z,101238.32
2019-05-05T01:25:48.760Z,101238.98
2019-05-05T01:28:18.249Z,101239.95
2019-05-05T01:30:50.612Z,101250.83
2019-05-05T01:33:31.746Z,101246.77
2019-05-05T01:36:01.130Z,101252.48
2019-05-05T01:38:45.163Z,101253.11
2019-05-05T01:41:27.446Z,101251.06
2019-05-05T01:43:56.824Z,101252.94
2019-05-05T01:46:26.097Z,101258.20
2019-05-05T01:48:55.552Z,101257.37
2019-05-05T01:51:25.002Z,101256.98
2019-05-05T01:53:54.649Z,101255.36
2019-05-05T01:56:24.762Z,101262.17
2019-05-05T01:58:54.820Z,101258.64
2019-05-05T02:01:24.751Z,101257.88
2019-05-05T02:03:54.933Z,101256.09
2019-05-05T02:06:24.868Z,101257.51
2019-05-05T02:08:54.963Z,101258.94
2019-05-05T02:11:24.872Z,101256.69
2019-05-05T02:13:54.660Z,101259.32
2019-05-05T02:16:25.342Z,101262.67
2019-05-05T02:18:55.140Z,101264.66
2019-05-05T02:21:24.910Z,101265.90
2019-05-05T02:23:54.889Z,101262.75
2019-05-05T02:26:24.603Z,101268.02
2019-05-05T02:29:18.723Z,101268.84
2019-05-05T02:32:25.895Z,101263.64
2019-05-05T02:34:58.120Z,101266.52
2019-05-05T02:37:27.760Z,101270.27
2019-05-05T02:40:02.701Z,101270.47
2019-05-05T02:42:29.155Z,101273.86
2019-05-05T02:45:01.441Z,101279.33
2019-05-05T02:47:55.472Z,101271.57
2019-05-05T02:50:28.541Z,101274.90
2019-05-05T02:53:01.190Z,101267.52
2019-05-05T02:55:32.844Z,101265.00
2019-05-05T02:58:03.838Z,101270.33
2019-05-05T03:00:50.644Z,101272.59
2019-05-05T03:03:20.243Z,101271.03
2019-05-05T03:05:50.204Z,101276.95
2019-05-05T03:08:19.577Z,101278.48
2019-05-05T03:10:49.582Z,101281.59
2019-05-05T03:13:21.208Z,101287.83
2019-05-05T03:16:03.746Z,101282.94
2019-05-05T03:18:33.853Z,101282.80
2019-05-05T03:21:07.136Z,101284.67
2019-05-05T03:23:34.559Z,101286.48
2019-05-05T03:26:04.356Z,101293.09
2019-05-05T03:28:47.256Z,101290.78
2019-05-05T03:31:17.107Z,101298.43
2019-05-05T03:33:46.682Z,101298.70
2019-05-05T03:36:16.064Z,101299.66
2019-05-05T03:38:46.184Z,101304.24
2019-05-05T03:41:23.965Z,101304.89
2019-05-05T03:44:06.703Z,101306.56
2019-05-05T03:46:36.843Z,101301.22
2019-05-05T03:49:06.727Z,101311.11
2019-05-05T03:51:36.128Z,101311.13
2019-05-05T03:54:05.983Z,101312.30
2019-05-05T03:56:35.742Z,101307.64
2019-05-05T03:59:05.164Z,101308.84
2019-05-05T04:01:44.063Z,101309.34
2019-05-05T04:04:24.450Z,101313.03
2019-05-05T04:06:54.168Z,101311.84
2019-05-05T04:09:24.370Z,101310.80
2019-05-05T04:11:54.015Z,101314.50
2019-05-05T04:14:25.022Z,101312.69
2019-05-05T04:17:08.626Z,101323.99
2019-05-05T04:19:39.919Z,101322.45
2019-05-05T04:22:09.502Z,101322.05
2019-05-05T04:24:38.743Z,101332.62
2019-05-05T04:27:08.076Z,101339.59
2019-05-05T04:29:37.549Z,101336.86
2019-05-05T04:32:06.842Z,101341.94
2019-05-05T04:34:36.177Z,101337.84
2019-05-05T04:37:05.726Z,101339.89
2019-05-05T04:39:34.970Z,101344.25
2019-05-05T04:42:04.866Z,101342.63
2019-05-05T04:44:34.855Z,101351.06
2019-05-05T04:47:11.638Z,101349.50
2019-05-05T04:49:47.204Z,101356.37
2019-05-05T04:52:17.350Z,101358.52
2019-05-05T04:54:51.944Z,101356.66
2019-05-05T04:57:21.448Z,101362.22
2019-05-05T04:59:54.043Z,101359.31
2019-05-05T05:02:48.838Z,101357.83
2019-05-05T05:05:28.314Z,101362.40
2019-05-05T05:07:58.171Z,101361.13
2019-05-05T05:10:27.579Z,101366.52
2019-05-05T05:12:56.886Z,101362.80
2019-05-05T05:15:26.241Z,101370.05
2019-05-05T05:18:05.406Z,101374.16
2019-05-05T05:20:34.879Z,101373.63
2019-05-05T05:23:04.184Z,101373.52
2019-05-05T05:25:34.662Z,101377.95
2019-05-05T05:28:04.433Z,101375.38
2019-05-05T05:30:34.661Z,101371.24
2019-05-05T05:33:04.454Z,101375.59
2019-05-05T05:35:34.016Z,101367.22
2019-05-05T05:38:04.659Z,101369.93
2019-05-05T05:40:53.643Z,101363.30
2019-05-05T05:43:29.973Z,101364.06
2019-05-05T05:46:18.648Z,101363.81
2019-05-05T05:49:24.850Z,101364.76
2019-05-05T05:51:54.247Z,101359.80
2019-05-05T05:54:23.614Z,101366.77
2019-05-05T05:56:53.794Z,101365.70
2019-05-05T05:59:24.701Z,101364.68
2019-05-05T06:02:08.429Z,101362.92
2019-05-05T06:04:25.351Z,101368.53
2019-05-05T06:06:54.688Z,101368.84
2019-05-05T06:09:24.034Z,101370.02
2019-05-05T06:11:54.207Z,101367.63
2019-05-05T06:14:24.715Z,101370.95
2019-05-05T06:16:54.253Z,101367.08
2019-05-05T06:19:24.627Z,101366.56
2019-05-05T06:21:54.360Z,101365.20
2019-05-05T06:24:24.098Z,101366.50
2019-05-05T06:26:54.742Z,101375.02
2019-05-05T06:29:24.166Z,101375.16
2019-05-05T06:31:53.960Z,101376.48
2019-05-05T06:34:24.460Z,101379.50
2019-05-05T06:36:53.861Z,101376.83
2019-05-05T06:39:24.188Z,101379.33
2019-05-05T06:42:05.768Z,101383.52
2019-05-05T06:44:47.939Z,101381.32
2019-05-05T06:47:20.200Z,101379.39
2019-05-05T06:49:49.750Z,101382.05
2019-05-05T06:52:19.053Z,101386.16
2019-05-05T06:54:48.398Z,101390.83
2019-05-05T06:57:17.901Z,101384.22
2019-05-05T06:59:47.212Z,101397.09
2019-05-05T07:02:16.525Z,101396.33
2019-05-05T07:04:46.043Z,101398.46
2019-05-05T07:07:15.499Z,101401.48
2019-05-05T07:09:44.835Z,101415.94
2019-05-05T07:12:14.464Z,101410.17
2019-05-05T07:14:44.537Z,101413.96
2019-05-05T07:17:14.296Z,101405.59
2019-05-05T07:19:44.961Z,101408.81
2019-05-05T07:22:17.594Z,101402.53
2019-05-05T07:24:45.710Z,101402.53
2019-05-05T07:27:14.960Z,101403.80
2019-05-05T07:29:44.283Z,101395.83
2019-05-05T07:32:14.295Z,101392.83
2019-05-05T07:35:05.417Z,101402.67
2019-05-05T07:37:34.831Z,101397.27
2019-05-05T07:40:04.742Z,101393.28
2019-05-05T07:42:34.109Z,101396.96
2019-05-05T07:45:08.378Z,101394.52
2019-05-05T07:47:34.722Z,101393.14
2019-05-05T07:50:04.384Z,101395.81
2019-05-05T07:52:34.359Z,101400.89
2019-05-05T07:55:03.796Z,101396.44
2019-05-05T07:57:34.184Z,101395.34
2019-05-05T08:00:05.456Z,101388.45
2019-05-05T08:02:34.933Z,101402.05
2019-05-05T08:05:04.781Z,101390.91
2019-05-05T08:07:34.174Z,101394.53
2019-05-05T08:10:04.581Z,101399.47
2019-05-05T08:12:34.241Z,101396.52
2019-05-05T08:15:04.319Z,101399.08
2019-05-05T08:18:11.000Z,101402.11
2019-05-05T08:20:44.357Z,101404.58
2019-05-05T08:23:38.300Z,101398.78
2019-05-05T08:26:34.625Z,101394.38
2019-05-05T08:29:23.812Z,101399.49
2019-05-05T08:32:00.502Z,101397.88
2019-05-05T08:34:29.900Z,101405.84
2019-05-05T08:36:59.937Z,101408.88
2019-05-05T08:39:29.387Z,101402.48
2019-05-05T08:41:58.831Z,101400.42
2019-05-05T08:44:28.163Z,101400.93
2019-05-05T08:46:57.672Z,101406.49
2019-05-05T08:49:27.274Z,101411.07
2019-05-05T08:51:56.694Z,101411.10
2019-05-05T08:54:26.040Z,101399.27
2019-05-05T08:56:55.592Z,101397.50
2019-05-05T08:59:25.178Z,101403.55
2019-05-05T09:01:54.437Z,101395.63
2019-05-05T09:04:24.710Z,101397.82
2019-05-05T09:06:54.428Z,101402.10
2019-05-05T09:09:24.245Z,101399.53
2019-05-05T09:11:54.281Z,101402.41
2019-05-05T09:14:24.064Z,101403.98
2019-05-05T09:16:53.771Z,101395.95
2019-05-05T09:19:24.119Z,101389.59
2019-05-05T09:21:54.131Z,101402.48
2019-05-05T09:24:45.622Z,101397.52
2019-05-05T09:27:44.272Z,101403.60
2019-05-05T09:30:15.576Z,101396.80
2019-05-05T09:32:44.961Z,101392.98
2019-05-05T09:35:14.303Z,101395.27
2019-05-05T09:37:44.406Z,101395.98
2019-05-05T09:40:16.142Z,101387.66
2019-05-05T09:42:45.485Z,101398.06
2019-05-05T09:45:15.029Z,101408.56
2019-05-05T09:47:45.006Z,101395.89
2019-05-05T09:50:15.550Z,101388.16
2019-05-05T09:52:44.835Z,101391.66
2019-05-05T09:55:14.168Z,101386.47
2019-05-05T09:57:43.951Z,101388.09
2019-05-05T10:00:14.325Z,101391.73
2019-05-05T10:02:44.279Z,101375.15
2019-05-05T10:05:14.524Z,101373.88
2019-05-05T10:07:44.192Z,101376.56
2019-05-05T10:10:14.425Z,101383.55
2019-05-05T10:12:44.546Z,101389.56
2019-05-05T10:15:14.367Z,101386.89
2019-05-05T10:17:44.165Z,101396.37
2019-05-05T10:20:14.533Z,101400.84
2019-05-05T10:22:43.981Z,101405.02
2019-05-05T10:25:36.454Z,101389.00
2019-05-05T10:28:05.827Z,101380.42
2019-05-05T10:30:35.350Z,101383.13
2019-05-05T10:33:04.822Z,101397.80
2019-05-05T10:35:34.548Z,101381.08
2019-05-05T10:38:03.971Z,101376.84
2019-05-05T10:40:34.855Z,101385.89
2019-05-05T10:43:04.765Z,101392.73
2019-05-05T10:45:34.337Z,101391.66
2019-05-05T10:48:04.239Z,101378.16
2019-05-05T10:50:34.192Z,101376.81
2019-05-05T10:53:04.551Z,101386.56
2019-05-05T10:55:34.888Z,101368.23
2019-05-05T10:58:04.486Z,101375.84
2019-05-05T11:00:44.348Z,101366.98
2019-05-05T11:03:14.852Z,101371.06
2019-05-05T11:05:45.136Z,101370.20
2019-05-05T11:08:14.602Z,101369.63
2019-05-05T11:10:44.998Z,101374.55
2019-05-05T11:13:14.630Z,101362.52
2019-05-05T11:15:44.472Z,101367.41
2019-05-05T11:18:14.690Z,101368.01
2019-05-05T11:20:44.875Z,101362.14
2019-05-05T11:23:15.116Z,101366.33
2019-05-05T11:25:44.736Z,101362.58
2019-05-05T11:28:14.324Z,101363.80
2019-05-05T11:30:45.221Z,101375.86
2019-05-05T11:33:37.939Z,101370.02
2019-05-05T11:36:19.338Z,101366.81
2019-05-05T11:38:48.839Z,101355.41
2019-05-05T11:41:18.154Z,101365.80
2019-05-05T11:43:47.448Z,101372.95
2019-05-05T11:46:16.934Z,101366.12
2019-05-05T11:48:46.240Z,101367.39
2019-05-05T11:51:15.518Z,101365.09
2019-05-05T11:53:44.995Z,101370.41
2019-05-05T11:56:14.568Z,101352.34
2019-05-05T11:58:44.348Z,101367.30
2019-05-05T12:01:14.154Z,101366.82
2019-05-05T12:03:44.435Z,101365.51
2019-05-05T12:06:14.727Z,101352.80
2019-05-05T12:08:45.846Z,101356.92
2019-05-05T12:11:15.530Z,101366.54
2019-05-05T12:13:44.926Z,101357.37
2019-05-05T12:16:16.065Z,101361.63
2019-05-05T12:18:45.360Z,101360.13
2019-05-05T12:21:14.708Z,101354.44
2019-05-05T12:23:44.600Z,101356.61
2019-05-05T12:26:35.757Z,101353.84
2019-05-05T12:29:14.310Z,101358.11
2019-05-05T12:31:48.727Z,101359.13
2019-05-05T12:34:18.099Z,101349.12
2019-05-05T12:36:47.426Z,101347.56
2019-05-05T12:39:16.886Z,101345.22
2019-05-05T12:41:46.208Z,101339.56
2019-05-05T12:44:23.649Z,101344.30
2019-05-05T12:47:10.810Z,101338.23
2019-05-05T12:49:40.220Z,101335.13
2019-05-05T12:52:09.537Z,101342.42
2019-05-05T12:54:38.938Z,101333.98
2019-05-05T12:57:08.480Z,101338.53
2019-05-05T12:59:37.828Z,101336.60
2019-05-05T13:02:07.554Z,101340.16
2019-05-05T13:04:36.804Z,101341.08
2019-05-05T13:07:08.319Z,101342.36
2019-05-05T13:09:37.202Z,101338.77
2019-05-05T13:12:06.559Z,101341.23
2019-05-05T13:14:35.820Z,101343.11
2019-05-05T13:17:05.218Z,101335.14
2019-05-05T13:19:56.133Z,101331.42
2019-05-05T13:22:44.317Z,101336.55
2019-05-05T13:25:26.776Z,101331.15
2019-05-05T13:27:57.429Z,101336.33
2019-05-05T13:30:26.814Z,101335.14
2019-05-05T13:32:56.263Z,101349.09
2019-05-05T13:35:25.577Z,101350.55
2019-05-05T13:37:55.060Z,101346.50
2019-05-05T13:40:24.439Z,101355.41
2019-05-05T13:42:54.807Z,101352.44
2019-05-05T13:45:34.286Z,101351.42
2019-05-05T13:48:03.680Z,101343.36
2019-05-05T13:50:36.422Z,101335.86
2019-05-05T13:53:05.787Z,101320.50
2019-05-05T13:55:35.097Z,101317.55
2019-05-05T13:58:04.629Z,101321.30
2019-05-05T14:00:34.019Z,101317.95
2019-05-05T14:03:03.966Z,101315.66
2019-05-05T14:05:34.386Z,101326.41
2019-05-05T14:08:04.272Z,101323.41
2019-05-05T14:10:33.656Z,101324.42
2019-05-05T14:13:03.780Z,101332.11
2019-05-05T14:15:34.114Z,101337.05
2019-05-05T14:18:03.895Z,101336.94
2019-05-05T14:20:34.494Z,101332.66
2019-05-05T14:23:04.433Z,101338.81
2019-05-05T14:25:34.077Z,101348.66
2019-05-05T14:28:03.901Z,101342.00
2019-05-05T14:30:51.111Z,101343.74
2019-05-05T14:33:26.253Z,101337.68
2019-05-05T14:36:24.422Z,101344.17
2019-05-05T14:38:56.146Z,101342.25
2019-05-05T14:41:25.712Z,101340.25
2019-05-05T14:43:56.566Z,101334.30
2019-05-05T14:46:26.150Z,101333.50
2019-05-05T14:48:55.420Z,101337.20
2019-05-05T14:51:24.744Z,101332.86
2019-05-05T14:53:54.428Z,101322.02
2019-05-05T14:56:35.735Z,101324.51
2019-05-05T14:58:55.113Z,101315.71
2019-05-05T15:01:24.833Z,101316.81
2019-05-05T15:03:54.215Z,101322.35
2019-05-05T15:06:31.565Z,101322.58
2019-05-05T15:09:07.130Z,101325.90
2019-05-05T15:11:58.688Z,101317.02
2019-05-05T15:14:28.083Z,101323.59
2019-05-05T15:16:57.502Z,101323.76
2019-05-05T15:19:27.148Z,101329.42
2019-05-05T15:21:56.389Z,101323.52
2019-05-05T15:24:25.712Z,101337.48
2019-05-05T15:26:55.306Z,101333.34
2019-05-05T15:29:25.156Z,101330.70
2019-05-05T15:31:54.952Z,101336.52
2019-05-05T15:34:24.556Z,101342.50
2019-05-05T15:36:54.628Z,101330.53
2019-05-05T15:39:24.678Z,101355.58
2019-05-05T15:41:54.478Z,101362.58
2019-05-05T15:44:24.282Z,101357.61
2019-05-05T15:46:57.355Z,101362.28
2019-05-05T15:49:24.875Z,101356.48
2019-05-05T15:51:54.222Z,101358.06
2019-05-05T15:54:23.761Z,101358.03
2019-05-05T15:57:04.948Z,101358.94
2019-05-05T15:59:24.327Z,101359.77
2019-05-05T16:01:54.919Z,101372.77
2019-05-05T16:04:24.431Z,101385.48
2019-05-05T16:06:54.213Z,101379.20
2019-05-05T16:09:23.606Z,101367.91
2019-05-05T16:11:54.566Z,101360.18
2019-05-05T16:14:24.508Z,101348.28
2019-05-05T16:17:06.572Z,101344.84
2019-05-05T16:19:54.851Z,101345.61
2019-05-05T16:22:34.684Z,101349.75
2019-05-05T16:25:14.276Z,101345.72
2019-05-05T16:27:44.820Z,101340.83
2019-05-05T16:30:14.853Z,101342.26
2019-05-05T16:32:44.130Z,101340.89
2019-05-05T16:35:15.149Z,101338.13
2019-05-05T16:37:44.392Z,101341.42
2019-05-05T16:40:14.543Z,101342.50
2019-05-05T16:42:44.105Z,101354.86
2019-05-05T16:45:16.281Z,101351.20
2019-05-05T16:47:45.225Z,101347.56
2019-05-05T16:50:14.696Z,101337.03
2019-05-05T16:52:54.480Z,101333.39
2019-05-05T16:55:34.490Z,101337.52
2019-05-05T16:58:06.542Z,101341.39
2019-05-05T17:00:35.923Z,101353.02
2019-05-05T17:03:05.513Z,101338.19
2019-05-05T17:05:34.865Z,101338.23
2019-05-05T17:08:04.586Z,101339.89
2019-05-05T17:10:34.358Z,101341.86
2019-05-05T17:13:24.037Z,101335.02
2019-05-05T17:16:04.952Z,101330.09
2019-05-05T17:18:46.218Z,101322.11
2019-05-05T17:21:19.686Z,101324.32
2019-05-05T17:23:48.979Z,101321.83
2019-05-05T17:26:18.281Z,101317.70
2019-05-05T17:28:47.740Z,101320.73
2019-05-05T17:31:17.095Z,101333.95
2019-05-05T17:33:46.500Z,101331.13
2019-05-05T17:36:16.004Z,101329.73
2019-05-05T17:38:45.339Z,101341.85
2019-05-05T17:41:34.122Z,101334.92
2019-05-05T17:44:07.512Z,101334.90
2019-05-05T17:46:46.935Z,101324.14
2019-05-05T17:49:26.861Z,101327.41
2019-05-05T17:52:03.709Z,101319.16
2019-05-05T17:54:39.666Z,101323.50
2019-05-05T17:57:09.496Z,101331.71
2019-05-05T17:59:38.842Z,101334.92
2019-05-05T18:02:08.201Z,101328.80
2019-05-05T18:04:38.227Z,101334.49
2019-05-05T18:07:17.972Z,101334.68
2019-05-05T18:10:04.593Z,101341.52
2019-05-05T18:12:58.932Z,101344.58
2019-05-05T18:15:48.229Z,101344.52
2019-05-05T18:18:16.805Z,101350.05
2019-05-05T18:20:46.113Z,101352.66
2019-05-05T18:23:15.716Z,101352.91
2019-05-05T18:25:45.214Z,101344.83
2019-05-05T18:28:19.741Z,101350.80
2019-05-05T18:30:45.599Z,101350.53
2019-05-05T18:33:14.901Z,101349.43
2019-05-05T18:35:44.562Z,101346.98
2019-05-05T18:38:13.998Z,101350.53
2019-05-05T18:40:44.025Z,101351.04
2019-05-05T18:43:21.933Z,101349.08
2019-05-05T18:46:01.413Z,101363.88
2019-05-05T18:48:31.155Z,101366.84
2019-05-05T18:51:00.584Z,101365.08
2019-05-05T18:53:29.948Z,101370.48
2019-05-05T18:55:59.333Z,101377.48
2019-05-05T18:58:30.336Z,101379.22
2019-05-05T19:01:08.265Z,101385.64
2019-05-05T19:03:56.533Z,101383.80
2019-05-05T19:06:45.101Z,101386.31
2019-05-05T19:09:18.253Z,101394.36
2019-05-05T19:11:47.949Z,101388.98
2019-05-05T19:14:17.352Z,101394.05
2019-05-05T19:16:46.620Z,101393.86
2019-05-05T19:19:16.128Z,101393.39
2019-05-05T19:21:50.066Z,101389.95
2019-05-05T19:24:19.535Z,101391.60
2019-05-05T19:26:48.828Z,101402.21
2019-05-05T19:29:18.234Z,101403.09
2019-05-05T19:31:47.760Z,101400.78
2019-05-05T19:34:17.074Z,101394.73
2019-05-05T19:36:46.353Z,101392.41
2019-05-05T19:39:15.899Z,101392.23
2019-05-05T19:41:47.139Z,101386.32
2019-05-05T19:44:16.249Z,101392.17
2019-05-05T19:46:54.845Z,101387.94
2019-05-05T19:49:24.287Z,101394.88
2019-05-05T19:51:54.249Z,101386.75
2019-05-05T19:54:23.649Z,101393.17
2019-05-05T19:56:54.272Z,101391.70
2019-05-05T19:59:23.677Z,101399.80
2019-05-05T20:01:54.042Z,101398.91
2019-05-05T20:04:24.088Z,101394.70
2019-05-05T20:06:54.814Z,101398.91
2019-05-05T20:09:24.811Z,101393.02
2019-05-05T20:11:54.603Z,101392.87
2019-05-05T20:14:24.784Z,101386.22
2019-05-05T20:17:14.768Z,101389.34
2019-05-05T20:19:45.908Z,101380.79
2019-05-05T20:22:15.551Z,101383.70
2019-05-05T20:24:44.903Z,101381.61
2019-05-05T20:27:15.019Z,101386.06
2019-05-05T20:29:44.493Z,101379.90
2019-05-05T20:32:14.818Z,101383.73
2019-05-05T20:35:04.939Z,101381.58
2019-05-05T20:37:45.101Z,101374.77
2019-05-05T20:40:16.438Z,101371.88
2019-05-05T20:42:45.806Z,101382.34
2019-05-05T20:45:19.238Z,101370.48
2019-05-05T20:47:48.499Z,101375.23
2019-05-05T20:50:17.752Z,101376.93
2019-05-05T20:52:47.255Z,101380.60
2019-05-05T20:55:16.579Z,101375.55
2019-05-05T20:57:46.012Z,101379.48
2019-05-05T21:00:17.696Z,101376.37
2019-05-05T21:02:47.064Z,101375.95
2019-05-05T21:05:16.400Z,101375.33
2019-05-05T21:07:45.712Z,101381.45
2019-05-05T21:10:14.999Z,101381.85
2019-05-05T21:12:45.637Z,101379.91
2019-05-05T21:15:16.206Z,101377.92
2019-05-05T21:17:45.511Z,101380.27
2019-05-05T21:20:14.924Z,101373.56
2019-05-05T21:22:56.184Z,101374.45
2019-05-05T21:25:36.887Z,101375.35
2019-05-05T21:28:06.408Z,101372.78
2019-05-05T21:30:35.740Z,101371.07
2019-05-05T21:33:05.101Z,101375.90
2019-05-05T21:35:35.006Z,101365.53
2019-05-05T21:38:04.855Z,101372.50
2019-05-05T21:40:34.737Z,101374.39
2019-05-05T21:43:04.923Z,101369.16
2019-05-05T21:45:34.889Z,101369.78
2019-05-05T21:48:04.536Z,101373.92
2019-05-05T21:50:39.306Z,101369.75
2019-05-05T21:53:14.108Z,101371.88
2019-05-05T21:55:53.190Z,101367.70
2019-05-05T21:58:25.483Z,101370.52
2019-05-05T22:01:14.674Z,101374.61
2019-05-05T22:03:44.355Z,101371.80
2019-05-05T22:06:14.583Z,101373.09
2019-05-05T22:08:44.144Z,101371.94
2019-05-05T22:11:14.644Z,101368.39
2019-05-05T22:13:44.577Z,101368.69
2019-05-05T22:16:13.938Z,101376.17
2019-05-05T22:18:44.675Z,101369.56
2019-05-05T22:21:20.711Z,101366.67
2019-05-05T22:24:07.556Z,101374.05
2019-05-05T22:26:37.083Z,101367.09
2019-05-05T22:29:06.547Z,101362.77
2019-05-05T22:31:35.938Z,101370.55
2019-05-05T22:34:06.111Z,101371.38
2019-05-05T22:36:35.770Z,101363.44
2019-05-05T22:39:08.078Z,101362.77
2019-05-05T22:41:37.807Z,101361.80
2019-05-05T22:44:07.232Z,101362.39
2019-05-05T22:46:36.897Z,101364.52
2019-05-05T22:49:06.225Z,101362.58
2019-05-05T22:51:35.501Z,101363.56
2019-05-05T22:54:05.264Z,101359.49
2019-05-05T22:56:34.562Z,101354.91
2019-05-05T22:59:04.470Z,101353.55
2019-05-05T23:01:34.111Z,101346.80
2019-05-05T23:04:25.476Z,101351.89
2019-05-05T23:06:59.044Z,101348.78
2019-05-05T23:09:28.356Z,101356.71
2019-05-05T23:11:57.642Z,101352.44
2019-05-05T23:14:30.027Z,101348.83
2019-05-05T23:17:18.774Z,101347.61
2019-05-05T23:19:54.544Z,101350.92
2019-05-05T23:22:30.906Z,101351.89
2019-05-05T23:25:05.104Z,101352.57
2019-05-05T23:27:54.739Z,101353.94
2019-05-05T23:30:37.856Z,101351.50
2019-05-05T23:32:55.426Z,101354.48
2019-05-05T23:35:24.859Z,101353.50
2019-05-05T23:37:55.236Z,101346.79
2019-05-05T23:40:25.854Z,101350.29
2019-05-05T23:42:55.233Z,101351.27
2019-05-05T23:45:25.074Z,101350.06
2019-05-05T23:47:54.871Z,101350.59
2019-05-05T23:50:24.212Z,101355.39
2019-05-05T23:52:54.401Z,101350.23
2019-05-05T23:55:24.264Z,101344.72
2019-05-05T23:57:54.688Z,101345.48
